sensor_id;sensor_type;location;lat;lon;timestamp;P1;durP1;ratioP1;P2;durP2;ratioP2
58516;SDS011;44308;50.810;0.284;2022-08-18T00:00:30;41.50;;;37.22;;
58516;SDS011;44308;50.810;0.284;2022-08-18T00:03:00;38.22;;;34.55;;
58516;SDS011;44308;50.810;0.284;2022-08-18T00:05:33;42.10;;;37.75;;
58516;SDS011;44308;50.810;0.284;2022-08-18T00:08:00;41.58;;;37.15;;
58516;SDS011;44308;50.810;0.284;2022-08-18T00:10:26;42.70;;;37.50;;
58516;SDS011;44308;50.810;0.284;2022-08-18T00:12:52;43.53;;;39.42;;
58516;SDS011;44308;50.810;0.284;2022-08-18T00:15:19;41.53;;;37.60;;
58516;SDS011;44308;50.810;0.284;2022-08-18T00:17:45;46.85;;;41.42;;
58516;SDS011;44308;50.810;0.284;2022-08-18T00:20:12;44.28;;;39.85;;
58516;SDS011;44308;50.810;0.284;2022-08-18T00:22:40;48.08;;;43.38;;
58516;SDS011;44308;50.810;0.284;2022-08-18T00:25:08;47.97;;;42.85;;
58516;SDS011;44308;50.810;0.284;2022-08-18T00:27:35;45.00;;;40.35;;
58516;SDS011;44308;50.810;0.284;2022-08-18T00:30:03;48.58;;;42.63;;
58516;SDS011;44308;50.810;0.284;2022-08-18T00:32:33;47.63;;;42.92;;
58516;SDS011;44308;50.810;0.284;2022-08-18T00:35:43;47.92;;;43.03;;
58516;SDS011;44308;50.810;0.284;2022-08-18T00:37:56;52.25;;;44.88;;
58516;SDS011;44308;50.810;0.284;2022-08-18T00:40:26;47.92;;;43.33;;
58516;SDS011;44308;50.810;0.284;2022-08-18T00:43:03;55.22;;;47.08;;
58516;SDS011;44308;50.810;0.284;2022-08-18T00:45:32;54.90;;;47.90;;
58516;SDS011;44308;50.810;0.284;2022-08-18T00:48:03;56.08;;;48.80;;
58516;SDS011;44308;50.810;0.284;2022-08-18T00:50:34;56.08;;;49.60;;
58516;SDS011;44308;50.810;0.284;2022-08-18T00:53:11;71.88;;;50.92;;
58516;SDS011;44308;50.810;0.284;2022-08-18T00:55:50;66.18;;;52.42;;
58516;SDS011;44308;50.810;0.284;2022-08-18T00:58:22;75.55;;;56.83;;
58516;SDS011;44308;50.810;0.284;2022-08-18T01:00:53;76.63;;;58.13;;
58516;SDS011;44308;50.810;0.284;2022-08-18T01:03:20;67.63;;;57.22;;
58516;SDS011;44308;50.810;0.284;2022-08-18T01:05:59;70.75;;;60.05;;
58516;SDS011;44308;50.810;0.284;2022-08-18T01:08:29;63.88;;;57.17;;
58516;SDS011;44308;50.810;0.284;2022-08-18T01:10:56;66.75;;;57.05;;
58516;SDS011;44308;50.810;0.284;2022-08-18T01:13:26;67.45;;;54.97;;
58516;SDS011;44308;50.810;0.284;2022-08-18T01:15:54;60.72;;;54.22;;
58516;SDS011;44308;50.810;0.284;2022-08-18T01:18:21;60.80;;;54.47;;
58516;SDS011;44308;50.810;0.284;2022-08-18T01:21:14;63.55;;;54.88;;
58516;SDS011;44308;50.810;0.284;2022-08-18T01:24:06;70.57;;;53.55;;
58516;SDS011;44308;50.810;0.284;2022-08-18T01:26:34;57.15;;;51.08;;
58516;SDS011;44308;50.810;0.284;2022-08-18T01:29:03;63.38;;;54.33;;
58516;SDS011;44308;50.810;0.284;2022-08-18T01:31:43;62.05;;;54.95;;
58516;SDS011;44308;50.810;0.284;2022-08-18T01:34:14;58.40;;;51.10;;
58516;SDS011;44308;50.810;0.284;2022-08-18T01:36:40;61.50;;;54.05;;
58516;SDS011;44308;50.810;0.284;2022-08-18T01:39:07;63.60;;;55.50;;
58516;SDS011;44308;50.810;0.284;2022-08-18T01:41:36;61.47;;;55.00;;
58516;SDS011;44308;50.810;0.284;2022-08-18T01:44:04;66.28;;;53.30;;
58516;SDS011;44308;50.810;0.284;2022-08-18T01:46:33;59.28;;;52.88;;
58516;SDS011;44308;50.810;0.284;2022-08-18T01:48:59;60.60;;;54.30;;
58516;SDS011;44308;50.810;0.284;2022-08-18T01:51:27;60.22;;;53.72;;
58516;SDS011;44308;50.810;0.284;2022-08-18T01:53:56;67.45;;;57.17;;
58516;SDS011;44308;50.810;0.284;2022-08-18T01:56:23;64.10;;;55.25;;
58516;SDS011;44308;50.810;0.284;2022-08-18T01:58:51;67.55;;;56.13;;
58516;SDS011;44308;50.810;0.284;2022-08-18T02:01:18;67.40;;;56.05;;
58516;SDS011;44308;50.810;0.284;2022-08-18T02:03:48;64.65;;;57.65;;
58516;SDS011;44308;50.810;0.284;2022-08-18T02:06:18;65.72;;;55.95;;
58516;SDS011;44308;50.810;0.284;2022-08-18T02:08:44;65.30;;;55.47;;
58516;SDS011;44308;50.810;0.284;2022-08-18T02:11:11;60.67;;;54.08;;
58516;SDS011;44308;50.810;0.284;2022-08-18T02:13:38;60.63;;;52.33;;
58516;SDS011;44308;50.810;0.284;2022-08-18T02:16:04;62.05;;;53.50;;
58516;SDS011;44308;50.810;0.284;2022-08-18T02:18:32;64.82;;;55.67;;
58516;SDS011;44308;50.810;0.284;2022-08-18T02:21:07;63.97;;;54.42;;
58516;SDS011;44308;50.810;0.284;2022-08-18T02:23:39;67.75;;;58.40;;
58516;SDS011;44308;50.810;0.284;2022-08-18T02:26:09;66.45;;;56.28;;
58516;SDS011;44308;50.810;0.284;2022-08-18T02:28:38;73.38;;;60.58;;
58516;SDS011;44308;50.810;0.284;2022-08-18T02:31:09;70.72;;;59.03;;
58516;SDS011;44308;50.810;0.284;2022-08-18T02:33:38;76.53;;;64.05;;
58516;SDS011;44308;50.810;0.284;2022-08-18T02:36:04;90.78;;;68.00;;
58516;SDS011;44308;50.810;0.284;2022-08-18T02:38:33;91.95;;;68.72;;
58516;SDS011;44308;50.810;0.284;2022-08-18T02:41:00;102.63;;;72.35;;
58516;SDS011;44308;50.810;0.284;2022-08-18T02:43:31;99.78;;;73.72;;
58516;SDS011;44308;50.810;0.284;2022-08-18T02:45:57;98.47;;;74.82;;
58516;SDS011;44308;50.810;0.284;2022-08-18T02:48:23;88.72;;;72.45;;
58516;SDS011;44308;50.810;0.284;2022-08-18T02:53:33;87.18;;;73.75;;
58516;SDS011;44308;50.810;0.284;2022-08-18T02:56:07;87.05;;;69.05;;
58516;SDS011;44308;50.810;0.284;2022-08-18T02:58:41;87.35;;;70.85;;
58516;SDS011;44308;50.810;0.284;2022-08-18T03:01:06;96.75;;;73.15;;
58516;SDS011;44308;50.810;0.284;2022-08-18T03:03:33;86.38;;;65.22;;
58516;SDS011;44308;50.810;0.284;2022-08-18T03:06:00;88.18;;;69.55;;
58516;SDS011;44308;50.810;0.284;2022-08-18T03:08:26;87.80;;;70.28;;
58516;SDS011;44308;50.810;0.284;2022-08-18T03:10:51;81.03;;;69.20;;
58516;SDS011;44308;50.810;0.284;2022-08-18T03:13:17;90.47;;;71.32;;
58516;SDS011;44308;50.810;0.284;2022-08-18T03:15:43;92.00;;;70.82;;
58516;SDS011;44308;50.810;0.284;2022-08-18T03:18:09;82.65;;;68.43;;
58516;SDS011;44308;50.810;0.284;2022-08-18T03:20:36;88.00;;;71.35;;
58516;SDS011;44308;50.810;0.284;2022-08-18T03:23:02;83.07;;;68.57;;
58516;SDS011;44308;50.810;0.284;2022-08-18T03:25:30;86.35;;;70.70;;
58516;SDS011;44308;50.810;0.284;2022-08-18T03:27:56;81.05;;;66.88;;
58516;SDS011;44308;50.810;0.284;2022-08-18T03:30:21;97.10;;;70.55;;
58516;SDS011;44308;50.810;0.284;2022-08-18T03:32:50;85.78;;;70.28;;
58516;SDS011;44308;50.810;0.284;2022-08-18T03:35:17;80.78;;;71.60;;
58516;SDS011;44308;50.810;0.284;2022-08-18T03:37:43;91.60;;;69.55;;
58516;SDS011;44308;50.810;0.284;2022-08-18T03:40:09;96.57;;;71.32;;
58516;SDS011;44308;50.810;0.284;2022-08-18T03:42:35;90.28;;;69.32;;
58516;SDS011;44308;50.810;0.284;2022-08-18T03:45:03;82.57;;;68.28;;
58516;SDS011;44308;50.810;0.284;2022-08-18T03:47:30;90.47;;;70.00;;
58516;SDS011;44308;50.810;0.284;2022-08-18T03:49:56;84.72;;;68.47;;
58516;SDS011;44308;50.810;0.284;2022-08-18T03:52:23;87.88;;;71.30;;
58516;SDS011;44308;50.810;0.284;2022-08-18T03:54:49;86.70;;;70.40;;
58516;SDS011;44308;50.810;0.284;2022-08-18T03:57:15;92.90;;;75.00;;
58516;SDS011;44308;50.810;0.284;2022-08-18T03:59:41;90.05;;;69.80;;
58516;SDS011;44308;50.810;0.284;2022-08-18T04:02:07;102.97;;;72.95;;
58516;SDS011;44308;50.810;0.284;2022-08-18T04:04:36;97.82;;;73.85;;
58516;SDS011;44308;50.810;0.284;2022-08-18T04:07:05;93.95;;;71.97;;
58516;SDS011;44308;50.810;0.284;2022-08-18T04:09:34;97.80;;;74.00;;
58516;SDS011;44308;50.810;0.284;2022-08-18T04:12:03;100.65;;;76.47;;
58516;SDS011;44308;50.810;0.284;2022-08-18T04:14:38;96.40;;;73.28;;
58516;SDS011;44308;50.810;0.284;2022-08-18T04:17:05;105.20;;;78.07;;
58516;SDS011;44308;50.810;0.284;2022-08-18T04:19:31;111.88;;;76.93;;
58516;SDS011;44308;50.810;0.284;2022-08-18T04:21:59;100.95;;;74.57;;
58516;SDS011;44308;50.810;0.284;2022-08-18T04:24:27;103.18;;;73.47;;
58516;SDS011;44308;50.810;0.284;2022-08-18T04:26:55;99.50;;;74.10;;
58516;SDS011;44308;50.810;0.284;2022-08-18T04:29:22;107.60;;;77.60;;
58516;SDS011;44308;50.810;0.284;2022-08-18T04:31:48;94.75;;;72.18;;
58516;SDS011;44308;50.810;0.284;2022-08-18T04:34:16;96.90;;;69.80;;
58516;SDS011;44308;50.810;0.284;2022-08-18T04:36:44;109.90;;;77.35;;
58516;SDS011;44308;50.810;0.284;2022-08-18T04:39:11;99.90;;;70.47;;
58516;SDS011;44308;50.810;0.284;2022-08-18T04:41:38;90.22;;;70.28;;
58516;SDS011;44308;50.810;0.284;2022-08-18T04:44:07;91.82;;;68.22;;
58516;SDS011;44308;50.810;0.284;2022-08-18T04:46:38;92.18;;;67.57;;
58516;SDS011;44308;50.810;0.284;2022-08-18T04:49:06;92.28;;;66.88;;
58516;SDS011;44308;50.810;0.284;2022-08-18T04:51:34;88.43;;;64.22;;
58516;SDS011;44308;50.810;0.284;2022-08-18T04:54:01;95.47;;;70.57;;
58516;SDS011;44308;50.810;0.284;2022-08-18T04:56:28;188.10;;;71.95;;
58516;SDS011;44308;50.810;0.284;2022-08-18T04:59:02;100.07;;;67.90;;
58516;SDS011;44308;50.810;0.284;2022-08-18T05:01:32;92.53;;;67.63;;
58516;SDS011;44308;50.810;0.284;2022-08-18T05:04:02;96.68;;;71.53;;
58516;SDS011;44308;50.810;0.284;2022-08-18T05:06:29;93.80;;;69.18;;
58516;SDS011;44308;50.810;0.284;2022-08-18T05:08:58;109.38;;;72.95;;
58516;SDS011;44308;50.810;0.284;2022-08-18T05:11:27;150.10;;;74.95;;
58516;SDS011;44308;50.810;0.284;2022-08-18T05:13:57;176.77;;;80.22;;
58516;SDS011;44308;50.810;0.284;2022-08-18T05:16:25;265.52;;;86.22;;
58516;SDS011;44308;50.810;0.284;2022-08-18T05:18:52;219.75;;;80.55;;
58516;SDS011;44308;50.810;0.284;2022-08-18T05:21:19;367.00;;;84.57;;
58516;SDS011;44308;50.810;0.284;2022-08-18T05:26:33;326.45;;;82.80;;
58516;SDS011;44308;50.810;0.284;2022-08-18T05:29:00;176.48;;;79.97;;
58516;SDS011;44308;50.810;0.284;2022-08-18T05:31:26;355.27;;;82.28;;
58516;SDS011;44308;50.810;0.284;2022-08-18T05:33:55;439.38;;;87.20;;
58516;SDS011;44308;50.810;0.284;2022-08-18T05:36:38;430.48;;;94.07;;
58516;SDS011;44308;50.810;0.284;2022-08-18T05:42:07;527.90;;;92.45;;
58516;SDS011;44308;50.810;0.284;2022-08-18T05:44:42;332.70;;;82.00;;
58516;SDS011;44308;50.810;0.284;2022-08-18T05:47:24;477.67;;;91.75;;
58516;SDS011;44308;50.810;0.284;2022-08-18T05:49:55;1068.45;;;124.72;;
58516;SDS011;44308;50.810;0.284;2022-08-18T05:52:31;367.15;;;82.80;;
58516;SDS011;44308;50.810;0.284;2022-08-18T05:55:12;1093.95;;;138.15;;
58516;SDS011;44308;50.810;0.284;2022-08-18T05:58:00;756.13;;;97.80;;
58516;SDS011;44308;50.810;0.284;2022-08-18T06:00:30;593.53;;;92.43;;
58516;SDS011;44308;50.810;0.284;2022-08-18T06:02:59;525.05;;;84.97;;
58516;SDS011;44308;50.810;0.284;2022-08-18T06:08:43;604.53;;;84.03;;
58516;SDS011;44308;50.810;0.284;2022-08-18T06:11:14;536.42;;;89.07;;
58516;SDS011;44308;50.810;0.284;2022-08-18T06:13:41;544.53;;;88.35;;
58516;SDS011;44308;50.810;0.284;2022-08-18T06:21:36;428.02;;;83.30;;
58516;SDS011;44308;50.810;0.284;2022-08-18T06:30:14;501.45;;;80.22;;
58516;SDS011;44308;50.810;0.284;2022-08-18T06:37:56;388.63;;;70.15;;
58516;SDS011;44308;50.810;0.284;2022-08-18T06:40:46;258.85;;;62.15;;
58516;SDS011;44308;50.810;0.284;2022-08-18T06:43:13;145.55;;;56.58;;
58516;SDS011;44308;50.810;0.284;2022-08-18T06:45:42;201.18;;;58.75;;
58516;SDS011;44308;50.810;0.284;2022-08-18T06:50:48;152.68;;;58.20;;
58516;SDS011;44308;50.810;0.284;2022-08-18T06:53:17;175.07;;;56.08;;
58516;SDS011;44308;50.810;0.284;2022-08-18T06:55:45;164.02;;;53.45;;
58516;SDS011;44308;50.810;0.284;2022-08-18T07:03:18;258.85;;;55.97;;
58516;SDS011;44308;50.810;0.284;2022-08-18T07:08:46;114.25;;;51.67;;
58516;SDS011;44308;50.810;0.284;2022-08-18T07:13:54;121.22;;;49.03;;
58516;SDS011;44308;50.810;0.284;2022-08-18T07:22:00;147.57;;;44.90;;
58516;SDS011;44308;50.810;0.284;2022-08-18T07:32:52;101.85;;;43.78;;
58516;SDS011;44308;50.810;0.284;2022-08-18T07:41:13;125.25;;;43.33;;
58516;SDS011;44308;50.810;0.284;2022-08-18T07:49:23;58.88;;;45.28;;
58516;SDS011;44308;50.810;0.284;2022-08-18T07:52:01;54.63;;;44.72;;
58516;SDS011;44308;50.810;0.284;2022-08-18T07:54:35;49.88;;;44.80;;
58516;SDS011;44308;50.810;0.284;2022-08-18T08:02:46;50.88;;;44.45;;
58516;SDS011;44308;50.810;0.284;2022-08-18T08:05:38;50.00;;;44.75;;
58516;SDS011;44308;50.810;0.284;2022-08-18T08:11:05;48.88;;;44.08;;
58516;SDS011;44308;50.810;0.284;2022-08-18T08:17:20;42.97;;;38.38;;
58516;SDS011;44308;50.810;0.284;2022-08-18T08:30:24;42.38;;;37.75;;
58516;SDS011;44308;50.810;0.284;2022-08-18T08:36:35;39.28;;;35.67;;
58516;SDS011;44308;50.810;0.284;2022-08-18T08:38:43;36.95;;;33.15;;
58516;SDS011;44308;50.810;0.284;2022-08-18T08:41:19;39.67;;;34.97;;
58516;SDS011;44308;50.810;0.284;2022-08-18T08:46:57;37.67;;;33.97;;
58516;SDS011;44308;50.810;0.284;2022-08-18T08:50:00;32.15;;;29.05;;
58516;SDS011;44308;50.810;0.284;2022-08-18T08:52:43;34.85;;;31.58;;
58516;SDS011;44308;50.810;0.284;2022-08-18T08:55:32;37.45;;;33.35;;
58516;SDS011;44308;50.810;0.284;2022-08-18T09:00:29;36.38;;;32.70;;
58516;SDS011;44308;50.810;0.284;2022-08-18T09:03:07;35.80;;;31.92;;
58516;SDS011;44308;50.810;0.284;2022-08-18T09:05:59;37.03;;;33.38;;
58516;SDS011;44308;50.810;0.284;2022-08-18T09:08:49;37.90;;;34.10;;
58516;SDS011;44308;50.810;0.284;2022-08-18T09:11:27;40.75;;;35.95;;
58516;SDS011;44308;50.810;0.284;2022-08-18T09:24:27;52.60;;;42.85;;
58516;SDS011;44308;50.810;0.284;2022-08-18T09:34:49;52.00;;;47.00;;
58516;SDS011;44308;50.810;0.284;2022-08-18T09:37:22;52.30;;;46.92;;
58516;SDS011;44308;50.810;0.284;2022-08-18T09:40:10;53.67;;;48.58;;
58516;SDS011;44308;50.810;0.284;2022-08-18T09:46:04;46.33;;;41.50;;
58516;SDS011;44308;50.810;0.284;2022-08-18T09:48:35;47.38;;;42.72;;
58516;SDS011;44308;50.810;0.284;2022-08-18T09:56:17;44.53;;;39.90;;
58516;SDS011;44308;50.810;0.284;2022-08-18T10:04:29;35.35;;;31.67;;
58516;SDS011;44308;50.810;0.284;2022-08-18T10:12:25;42.00;;;38.03;;
58516;SDS011;44308;50.810;0.284;2022-08-18T10:20:38;42.45;;;34.90;;
58516;SDS011;44308;50.810;0.284;2022-08-18T10:23:06;40.25;;;36.08;;
58516;SDS011;44308;50.810;0.284;2022-08-18T10:25:36;47.03;;;36.42;;
58516;SDS011;44308;50.810;0.284;2022-08-18T10:28:06;35.75;;;31.98;;
58516;SDS011;44308;50.810;0.284;2022-08-18T10:33:01;48.40;;;34.38;;
58516;SDS011;44308;50.810;0.284;2022-08-18T10:40:34;32.35;;;29.02;;
58516;SDS011;44308;50.810;0.284;2022-08-18T10:43:16;34.92;;;30.27;;
58516;SDS011;44308;50.810;0.284;2022-08-18T10:46:15;29.23;;;26.40;;
58516;SDS011;44308;50.810;0.284;2022-08-18T10:48:45;24.45;;;21.55;;
58516;SDS011;44308;50.810;0.284;2022-08-18T10:51:39;22.00;;;19.63;;
58516;SDS011;44308;50.810;0.284;2022-08-18T11:00:04;28.67;;;25.67;;
58516;SDS011;44308;50.810;0.284;2022-08-18T11:05:25;26.67;;;23.90;;
58516;SDS011;44308;50.810;0.284;2022-08-18T11:07:59;24.73;;;21.70;;
58516;SDS011;44308;50.810;0.284;2022-08-18T11:10:44;26.85;;;24.08;;
58516;SDS011;44308;50.810;0.284;2022-08-18T11:13:23;28.85;;;25.92;;
58516;SDS011;44308;50.810;0.284;2022-08-18T11:18:55;42.58;;;37.05;;
58516;SDS011;44308;50.810;0.284;2022-08-18T11:26:31;35.47;;;31.67;;
58516;SDS011;44308;50.810;0.284;2022-08-18T11:29:00;35.55;;;31.75;;
58516;SDS011;44308;50.810;0.284;2022-08-18T11:31:39;39.05;;;33.55;;
58516;SDS011;44308;50.810;0.284;2022-08-18T11:34:05;37.15;;;33.42;;
58516;SDS011;44308;50.810;0.284;2022-08-18T11:36:42;40.33;;;36.03;;
58516;SDS011;44308;50.810;0.284;2022-08-18T11:39:09;45.60;;;36.92;;
58516;SDS011;44308;50.810;0.284;2022-08-18T11:41:35;40.38;;;36.47;;
58516;SDS011;44308;50.810;0.284;2022-08-18T11:44:02;40.22;;;36.05;;
58516;SDS011;44308;50.810;0.284;2022-08-18T11:46:37;44.65;;;35.80;;
58516;SDS011;44308;50.810;0.284;2022-08-18T11:49:43;37.17;;;33.60;;
58516;SDS011;44308;50.810;0.284;2022-08-18T11:52:02;34.15;;;30.65;;
58516;SDS011;44308;50.810;0.284;2022-08-18T11:54:44;32.58;;;29.17;;
58516;SDS011;44308;50.810;0.284;2022-08-18T12:05:49;31.55;;;28.33;;
58516;SDS011;44308;50.810;0.284;2022-08-18T12:08:21;30.63;;;27.70;;
58516;SDS011;44308;50.810;0.284;2022-08-18T12:14:06;30.25;;;26.95;;
58516;SDS011;44308;50.810;0.284;2022-08-18T12:16:35;26.23;;;23.42;;
58516;SDS011;44308;50.810;0.284;2022-08-18T12:19:07;30.88;;;27.13;;
58516;SDS011;44308;50.810;0.284;2022-08-18T12:21:39;27.83;;;24.90;;
58516;SDS011;44308;50.810;0.284;2022-08-18T12:24:08;27.02;;;22.08;;
58516;SDS011;44308;50.810;0.284;2022-08-18T12:26:57;22.90;;;20.52;;
58516;SDS011;44308;50.810;0.284;2022-08-18T12:29:24;22.83;;;18.45;;
58516;SDS011;44308;50.810;0.284;2022-08-18T12:31:51;23.52;;;21.00;;
58516;SDS011;44308;50.810;0.284;2022-08-18T12:34:19;26.33;;;23.17;;
58516;SDS011;44308;50.810;0.284;2022-08-18T12:36:51;25.63;;;23.25;;
58516;SDS011;44308;50.810;0.284;2022-08-18T12:39:19;25.77;;;23.33;;
58516;SDS011;44308;50.810;0.284;2022-08-18T12:41:45;24.50;;;21.95;;
58516;SDS011;44308;50.810;0.284;2022-08-18T12:44:11;24.40;;;19.95;;
58516;SDS011;44308;50.810;0.284;2022-08-18T12:46:36;26.40;;;23.50;;
58516;SDS011;44308;50.810;0.284;2022-08-18T12:49:02;26.90;;;24.27;;
58516;SDS011;44308;50.810;0.284;2022-08-18T12:51:30;26.23;;;23.63;;
58516;SDS011;44308;50.810;0.284;2022-08-18T12:53:56;25.92;;;23.17;;
58516;SDS011;44308;50.810;0.284;2022-08-18T12:56:26;24.23;;;21.80;;
58516;SDS011;44308;50.810;0.284;2022-08-18T13:01:22;28.35;;;25.58;;
58516;SDS011;44308;50.810;0.284;2022-08-18T13:03:52;27.02;;;24.08;;
58516;SDS011;44308;50.810;0.284;2022-08-18T13:06:20;28.20;;;25.10;;
58516;SDS011;44308;50.810;0.284;2022-08-18T13:08:49;32.63;;;29.15;;
58516;SDS011;44308;50.810;0.284;2022-08-18T13:11:16;32.10;;;29.05;;
58516;SDS011;44308;50.810;0.284;2022-08-18T13:13:43;36.17;;;32.53;;
58516;SDS011;44308;50.810;0.284;2022-08-18T13:16:10;36.35;;;32.45;;
58516;SDS011;44308;50.810;0.284;2022-08-18T13:18:39;28.30;;;25.55;;
58516;SDS011;44308;50.810;0.284;2022-08-18T13:21:06;33.40;;;30.27;;
58516;SDS011;44308;50.810;0.284;2022-08-18T13:23:34;32.25;;;28.77;;
58516;SDS011;44308;50.810;0.284;2022-08-18T13:26:00;32.72;;;29.10;;
58516;SDS011;44308;50.810;0.284;2022-08-18T13:28:27;31.15;;;28.00;;
58516;SDS011;44308;50.810;0.284;2022-08-18T13:30:54;27.60;;;24.95;;
58516;SDS011;44308;50.810;0.284;2022-08-18T13:33:19;30.05;;;26.05;;
58516;SDS011;44308;50.810;0.284;2022-08-18T13:35:46;29.17;;;24.80;;
58516;SDS011;44308;50.810;0.284;2022-08-18T13:38:12;24.85;;;21.88;;
58516;SDS011;44308;50.810;0.284;2022-08-18T13:40:42;21.60;;;19.42;;
58516;SDS011;44308;50.810;0.284;2022-08-18T13:43:09;19.30;;;16.33;;
58516;SDS011;44308;50.810;0.284;2022-08-18T13:45:35;21.25;;;19.23;;
58516;SDS011;44308;50.810;0.284;2022-08-18T13:48:01;26.00;;;20.15;;
58516;SDS011;44308;50.810;0.284;2022-08-18T13:50:30;20.90;;;18.70;;
58516;SDS011;44308;50.810;0.284;2022-08-18T13:52:56;17.58;;;15.13;;
58516;SDS011;44308;50.810;0.284;2022-08-18T13:55:26;17.52;;;15.73;;
58516;SDS011;44308;50.810;0.284;2022-08-18T13:57:53;18.13;;;16.38;;
58516;SDS011;44308;50.810;0.284;2022-08-18T14:00:20;21.15;;;15.77;;
58516;SDS011;44308;50.810;0.284;2022-08-18T14:02:48;18.20;;;15.57;;
58516;SDS011;44308;50.810;0.284;2022-08-18T14:05:21;15.50;;;14.02;;
58516;SDS011;44308;50.810;0.284;2022-08-18T14:07:47;14.80;;;13.30;;
58516;SDS011;44308;50.810;0.284;2022-08-18T14:10:13;13.57;;;11.30;;
58516;SDS011;44308;50.810;0.284;2022-08-18T14:12:44;11.95;;;10.20;;
58516;SDS011;44308;50.810;0.284;2022-08-18T14:15:11;12.35;;;11.35;;
58516;SDS011;44308;50.810;0.284;2022-08-18T14:17:39;13.50;;;10.95;;
58516;SDS011;44308;50.810;0.284;2022-08-18T14:20:05;11.73;;;10.43;;
58516;SDS011;44308;50.810;0.284;2022-08-18T14:22:52;10.27;;;9.23;;
58516;SDS011;44308;50.810;0.284;2022-08-18T14:25:38;10.48;;;8.35;;
58516;SDS011;44308;50.810;0.284;2022-08-18T14:28:22;10.65;;;8.40;;
58516;SDS011;44308;50.810;0.284;2022-08-18T14:30:48;9.07;;;7.97;;
58516;SDS011;44308;50.810;0.284;2022-08-18T14:33:16;9.75;;;8.75;;
58516;SDS011;44308;50.810;0.284;2022-08-18T14:35:44;8.75;;;7.95;;
58516;SDS011;44308;50.810;0.284;2022-08-18T14:38:11;9.82;;;7.65;;
58516;SDS011;44308;50.810;0.284;2022-08-18T14:40:39;12.10;;;7.60;;
58516;SDS011;44308;50.810;0.284;2022-08-18T14:43:07;10.52;;;7.78;;
58516;SDS011;44308;50.810;0.284;2022-08-18T14:45:33;10.80;;;7.93;;
58516;SDS011;44308;50.810;0.284;2022-08-18T14:47:59;12.85;;;9.57;;
58516;SDS011;44308;50.810;0.284;2022-08-18T14:50:25;16.30;;;9.57;;
58516;SDS011;44308;50.810;0.284;2022-08-18T14:52:51;10.57;;;8.15;;
58516;SDS011;44308;50.810;0.284;2022-08-18T14:55:17;13.63;;;8.15;;
58516;SDS011;44308;50.810;0.284;2022-08-18T14:57:43;11.18;;;7.82;;
58516;SDS011;44308;50.810;0.284;2022-08-18T15:00:11;13.00;;;7.97;;
58516;SDS011;44308;50.810;0.284;2022-08-18T15:02:41;10.55;;;7.18;;
58516;SDS011;44308;50.810;0.284;2022-08-18T15:05:08;10.38;;;7.55;;
58516;SDS011;44308;50.810;0.284;2022-08-18T15:07:36;13.45;;;7.30;;
58516;SDS011;44308;50.810;0.284;2022-08-18T15:10:03;8.40;;;6.55;;
58516;SDS011;44308;50.810;0.284;2022-08-18T15:12:31;11.82;;;7.60;;
58516;SDS011;44308;50.810;0.284;2022-08-18T15:14:56;12.38;;;7.57;;
58516;SDS011;44308;50.810;0.284;2022-08-18T15:17:24;11.10;;;7.25;;
58516;SDS011;44308;50.810;0.284;2022-08-18T15:19:51;11.82;;;8.05;;
58516;SDS011;44308;50.810;0.284;2022-08-18T15:22:18;13.00;;;7.85;;
58516;SDS011;44308;50.810;0.284;2022-08-18T15:25:03;12.02;;;7.80;;
58516;SDS011;44308;50.810;0.284;2022-08-18T15:27:49;9.05;;;6.70;;
58516;SDS011;44308;50.810;0.284;2022-08-18T15:30:15;11.40;;;6.40;;
58516;SDS011;44308;50.810;0.284;2022-08-18T15:32:42;8.40;;;7.20;;
58516;SDS011;44308;50.810;0.284;2022-08-18T15:35:09;10.15;;;6.07;;
58516;SDS011;44308;50.810;0.284;2022-08-18T15:42:49;9.82;;;6.65;;
58516;SDS011;44308;50.810;0.284;2022-08-18T15:45:21;11.55;;;6.18;;
58516;SDS011;44308;50.810;0.284;2022-08-18T15:47:49;10.00;;;6.00;;
58516;SDS011;44308;50.810;0.284;2022-08-18T15:50:16;10.52;;;5.60;;
58516;SDS011;44308;50.810;0.284;2022-08-18T15:52:50;9.80;;;5.35;;
58516;SDS011;44308;50.810;0.284;2022-08-18T15:55:22;8.48;;;5.25;;
58516;SDS011;44308;50.810;0.284;2022-08-18T15:57:49;8.30;;;6.18;;
58516;SDS011;44308;50.810;0.284;2022-08-18T16:00:15;8.45;;;6.25;;
58516;SDS011;44308;50.810;0.284;2022-08-18T16:02:51;9.60;;;5.93;;
58516;SDS011;44308;50.810;0.284;2022-08-18T16:05:21;6.13;;;5.38;;
58516;SDS011;44308;50.810;0.284;2022-08-18T16:07:49;10.75;;;6.38;;
58516;SDS011;44308;50.810;0.284;2022-08-18T16:10:16;9.07;;;5.30;;
58516;SDS011;44308;50.810;0.284;2022-08-18T16:12:45;12.38;;;5.75;;
58516;SDS011;44308;50.810;0.284;2022-08-18T16:15:21;8.38;;;6.10;;
58516;SDS011;44308;50.810;0.284;2022-08-18T16:17:49;5.85;;;5.25;;
58516;SDS011;44308;50.810;0.284;2022-08-18T16:20:18;9.15;;;6.30;;
58516;SDS011;44308;50.810;0.284;2022-08-18T16:22:45;15.95;;;5.95;;
58516;SDS011;44308;50.810;0.284;2022-08-18T16:25:12;17.35;;;6.25;;
58516;SDS011;44308;50.810;0.284;2022-08-18T16:27:41;10.43;;;5.40;;
58516;SDS011;44308;50.810;0.284;2022-08-18T16:30:12;8.73;;;5.88;;
58516;SDS011;44308;50.810;0.284;2022-08-18T16:32:46;9.45;;;5.38;;
58516;SDS011;44308;50.810;0.284;2022-08-18T16:35:13;7.13;;;5.47;;
58516;SDS011;44308;50.810;0.284;2022-08-18T16:37:40;7.13;;;5.35;;
58516;SDS011;44308;50.810;0.284;2022-08-18T16:40:06;11.35;;;5.03;;
58516;SDS011;44308;50.810;0.284;2022-08-18T16:42:32;5.65;;;4.88;;
58516;SDS011;44308;50.810;0.284;2022-08-18T16:47:45;12.00;;;5.13;;
58516;SDS011;44308;50.810;0.284;2022-08-18T16:50:13;8.02;;;4.25;;
58516;SDS011;44308;50.810;0.284;2022-08-18T16:52:42;7.40;;;4.22;;
58516;SDS011;44308;50.810;0.284;2022-08-18T16:55:12;11.93;;;5.47;;
58516;SDS011;44308;50.810;0.284;2022-08-18T16:57:39;13.55;;;5.45;;
58516;SDS011;44308;50.810;0.284;2022-08-18T17:00:28;8.93;;;5.10;;
58516;SDS011;44308;50.810;0.284;2022-08-18T17:03:13;8.55;;;5.38;;
58516;SDS011;44308;50.810;0.284;2022-08-18T17:05:58;11.52;;;5.28;;
58516;SDS011;44308;50.810;0.284;2022-08-18T17:08:27;11.73;;;5.53;;
58516;SDS011;44308;50.810;0.284;2022-08-18T17:10:53;9.73;;;5.65;;
58516;SDS011;44308;50.810;0.284;2022-08-18T17:13:19;14.77;;;6.05;;
58516;SDS011;44308;50.810;0.284;2022-08-18T17:15:46;10.23;;;5.28;;
58516;SDS011;44308;50.810;0.284;2022-08-18T17:18:14;7.40;;;5.15;;
58516;SDS011;44308;50.810;0.284;2022-08-18T17:20:40;12.73;;;5.40;;
58516;SDS011;44308;50.810;0.284;2022-08-18T17:23:05;9.55;;;4.20;;
58516;SDS011;44308;50.810;0.284;2022-08-18T17:25:32;6.82;;;5.32;;
58516;SDS011;44308;50.810;0.284;2022-08-18T17:27:59;8.88;;;5.53;;
58516;SDS011;44308;50.810;0.284;2022-08-18T17:30:26;10.85;;;5.75;;
58516;SDS011;44308;50.810;0.284;2022-08-18T17:40:41;10.35;;;5.47;;
58516;SDS011;44308;50.810;0.284;2022-08-18T17:43:09;10.50;;;5.28;;
58516;SDS011;44308;50.810;0.284;2022-08-18T17:45:43;8.93;;;5.03;;
58516;SDS011;44308;50.810;0.284;2022-08-18T17:48:20;10.52;;;5.57;;
58516;SDS011;44308;50.810;0.284;2022-08-18T17:50:56;11.82;;;6.20;;
58516;SDS011;44308;50.810;0.284;2022-08-18T17:53:58;11.27;;;5.25;;
58516;SDS011;44308;50.810;0.284;2022-08-18T17:56:41;12.10;;;5.33;;
58516;SDS011;44308;50.810;0.284;2022-08-18T17:59:26;9.45;;;5.85;;